sensor_id;sensor_type;location;lat;lon;timestamp;P1;durP1;ratioP1;P2;durP2;ratioP2
45940;SDS011;31858;46.008;8.978;2022-09-04T00:06:32;9.40;;;4.18;;
45940;SDS011;31858;46.008;8.978;2022-09-04T00:16:42;9.63;;;3.90;;
45940;SDS011;31858;46.008;8.978;2022-09-04T00:26:51;4.20;;;3.70;;
45940;SDS011;31858;46.008;8.978;2022-09-04T00:36:58;8.30;;;4.27;;
45940;SDS011;31858;46.008;8.978;2022-09-04T00:47:11;4.57;;;4.10;;
45940;SDS011;31858;46.008;8.978;2022-09-04T00:57:46;5.55;;;4.53;;
45940;SDS011;31858;46.008;8.978;2022-09-04T01:08:02;5.00;;;4.60;;
45940;SDS011;31858;46.008;8.978;2022-09-04T01:18:11;6.20;;;4.28;;
45940;SDS011;31858;46.008;8.978;2022-09-04T01:28:22;4.97;;;4.30;;
45940;SDS011;31858;46.008;8.978;2022-09-04T01:38:30;5.47;;;4.53;;
45940;SDS011;31858;46.008;8.978;2022-09-04T01:48:41;6.93;;;4.30;;
45940;SDS011;31858;46.008;8.978;2022-09-04T01:58:49;5.57;;;4.22;;
45940;SDS011;31858;46.008;8.978;2022-09-04T02:09:01;5.60;;;4.22;;
45940;SDS011;31858;46.008;8.978;2022-09-04T02:19:15;6.07;;;4.53;;
45940;SDS011;31858;46.008;8.978;2022-09-04T02:29:25;5.32;;;4.60;;
45940;SDS011;31858;46.008;8.978;2022-09-04T02:39:34;6.30;;;4.60;;
45940;SDS011;31858;46.008;8.978;2022-09-04T02:49:50;17.77;;;6.05;;
45940;SDS011;31858;46.008;8.978;2022-09-04T03:00:00;5.22;;;4.55;;
45940;SDS011;31858;46.008;8.978;2022-09-04T03:10:09;7.32;;;4.43;;
45940;SDS011;31858;46.008;8.978;2022-09-04T03:20:16;5.30;;;4.43;;
45940;SDS011;31858;46.008;8.978;2022-09-04T03:30:24;9.45;;;4.72;;
45940;SDS011;31858;46.008;8.978;2022-09-04T03:40:34;6.38;;;5.00;;
45940;SDS011;31858;46.008;8.978;2022-09-04T03:50:42;4.95;;;4.40;;
45940;SDS011;31858;46.008;8.978;2022-09-04T04:00:53;6.03;;;4.80;;
45940;SDS011;31858;46.008;8.978;2022-09-04T04:11:11;12.57;;;4.82;;
45940;SDS011;31858;46.008;8.978;2022-09-04T04:21:39;6.30;;;4.72;;
45940;SDS011;31858;46.008;8.978;2022-09-04T04:32:03;6.97;;;4.22;;
45940;SDS011;31858;46.008;8.978;2022-09-04T04:42:20;6.68;;;4.50;;
45940;SDS011;31858;46.008;8.978;2022-09-04T04:52:33;5.75;;;4.10;;
45940;SDS011;31858;46.008;8.978;2022-09-04T05:02:47;8.90;;;4.50;;
45940;SDS011;31858;46.008;8.978;2022-09-04T05:13:05;9.15;;;4.50;;
45940;SDS011;31858;46.008;8.978;2022-09-04T05:23:20;8.15;;;4.88;;
45940;SDS011;31858;46.008;8.978;2022-09-04T05:33:33;5.03;;;4.53;;
45940;SDS011;31858;46.008;8.978;2022-09-04T05:43:48;7.35;;;4.82;;
45940;SDS011;31858;46.008;8.978;2022-09-04T05:54:15;7.80;;;5.18;;
45940;SDS011;31858;46.008;8.978;2022-09-04T06:15:22;4.72;;;4.32;;
45940;SDS011;31858;46.008;8.978;2022-09-04T06:25:38;8.48;;;5.22;;
45940;SDS011;31858;46.008;8.978;2022-09-04T06:36:12;6.37;;;5.20;;
45940;SDS011;31858;46.008;8.978;2022-09-04T06:46:22;7.60;;;4.53;;
45940;SDS011;31858;46.008;8.978;2022-09-04T07:06:50;7.30;;;4.95;;
45940;SDS011;31858;46.008;8.978;2022-09-04T07:17:04;5.57;;;5.00;;
45940;SDS011;31858;46.008;8.978;2022-09-04T07:27:14;5.00;;;4.50;;
45940;SDS011;31858;46.008;8.978;2022-09-04T07:37:25;4.90;;;4.35;;
45940;SDS011;31858;46.008;8.978;2022-09-04T07:47:39;6.43;;;4.90;;
45940;SDS011;31858;46.008;8.978;2022-09-04T07:57:55;7.32;;;5.22;;
45940;SDS011;31858;46.008;8.978;2022-09-04T08:08:13;5.43;;;4.93;;
45940;SDS011;31858;46.008;8.978;2022-09-04T08:18:36;6.50;;;5.75;;
45940;SDS011;31858;46.008;8.978;2022-09-04T08:28:56;5.30;;;4.80;;
45940;SDS011;31858;46.008;8.978;2022-09-04T08:39:10;9.23;;;3.95;;
45940;SDS011;31858;46.008;8.978;2022-09-04T08:49:41;5.07;;;4.05;;
45940;SDS011;31858;46.008;8.978;2022-09-04T09:00:07;5.50;;;4.53;;
45940;SDS011;31858;46.008;8.978;2022-09-04T09:20:40;4.93;;;4.40;;
45940;SDS011;31858;46.008;8.978;2022-09-04T09:31:02;4.97;;;4.20;;
45940;SDS011;31858;46.008;8.978;2022-09-04T10:02:58;6.75;;;6.05;;
45940;SDS011;31858;46.008;8.978;2022-09-04T10:13:47;7.53;;;5.20;;
45940;SDS011;31858;46.008;8.978;2022-09-04T10:24:20;6.25;;;5.70;;
45940;SDS011;31858;46.008;8.978;2022-09-04T10:35:02;6.20;;;5.68;;
45940;SDS011;31858;46.008;8.978;2022-09-04T10:45:18;10.45;;;9.45;;
45940;SDS011;31858;46.008;8.978;2022-09-04T10:55:31;11.32;;;7.75;;
45940;SDS011;31858;46.008;8.978;2022-09-04T11:27:25;7.72;;;6.97;;
45940;SDS011;31858;46.008;8.978;2022-09-04T11:37:58;8.82;;;6.60;;
45940;SDS011;31858;46.008;8.978;2022-09-04T11:48:13;8.23;;;5.22;;
45940;SDS011;31858;46.008;8.978;2022-09-04T11:58:57;7.68;;;5.57;;
45940;SDS011;31858;46.008;8.978;2022-09-04T12:09:45;5.05;;;4.38;;
45940;SDS011;31858;46.008;8.978;2022-09-04T12:30:47;8.60;;;4.15;;
45940;SDS011;31858;46.008;8.978;2022-09-04T12:41:00;4.68;;;3.60;;
45940;SDS011;31858;46.008;8.978;2022-09-04T12:51:11;6.07;;;3.80;;
45940;SDS011;31858;46.008;8.978;2022-09-04T13:01:18;3.97;;;3.58;;
45940;SDS011;31858;46.008;8.978;2022-09-04T13:11:36;3.88;;;3.47;;
45940;SDS011;31858;46.008;8.978;2022-09-04T13:21:51;4.00;;;3.70;;
45940;SDS011;31858;46.008;8.978;2022-09-04T13:32:06;4.03;;;3.72;;
45940;SDS011;31858;46.008;8.978;2022-09-04T13:42:31;4.45;;;3.80;;
45940;SDS011;31858;46.008;8.978;2022-09-04T13:52:50;4.63;;;3.95;;
45940;SDS011;31858;46.008;8.978;2022-09-04T14:02:57;4.47;;;4.05;;
45940;SDS011;31858;46.008;8.978;2022-09-04T14:13:06;4.18;;;3.78;;
45940;SDS011;31858;46.008;8.978;2022-09-04T14:23:16;3.70;;;3.40;;
45940;SDS011;31858;46.008;8.978;2022-09-04T14:33:26;4.10;;;3.17;;
45940;SDS011;31858;46.008;8.978;2022-09-04T14:43:38;4.18;;;3.10;;
45940;SDS011;31858;46.008;8.978;2022-09-04T14:53:50;5.78;;;3.78;;
45940;SDS011;31858;46.008;8.978;2022-09-04T15:03:55;4.00;;;3.60;;
45940;SDS011;31858;46.008;8.978;2022-09-04T15:14:04;6.65;;;5.38;;
45940;SDS011;31858;46.008;8.978;2022-09-04T15:24:13;7.47;;;3.15;;
45940;SDS011;31858;46.008;8.978;2022-09-04T15:34:21;4.90;;;2.70;;
45940;SDS011;31858;46.008;8.978;2022-09-04T15:44:26;3.35;;;2.95;;
45940;SDS011;31858;46.008;8.978;2022-09-04T15:54:45;3.10;;;2.83;;
45940;SDS011;31858;46.008;8.978;2022-09-04T16:04:56;6.55;;;3.38;;
45940;SDS011;31858;46.008;8.978;2022-09-04T16:15:07;3.50;;;3.20;;
45940;SDS011;31858;46.008;8.978;2022-09-04T16:35:24;6.07;;;3.50;;
45940;SDS011;31858;46.008;8.978;2022-09-04T16:45:31;3.20;;;2.90;;
45940;SDS011;31858;46.008;8.978;2022-09-04T16:55:41;4.97;;;4.10;;
45940;SDS011;31858;46.008;8.978;2022-09-04T17:15:51;3.33;;;3.00;;
45940;SDS011;31858;46.008;8.978;2022-09-04T17:26:00;5.10;;;2.97;;
45940;SDS011;31858;46.008;8.978;2022-09-04T17:36:10;3.97;;;3.15;;
45940;SDS011;31858;46.008;8.978;2022-09-04T17:46:20;5.07;;;2.92;;
45940;SDS011;31858;46.008;8.978;2022-09-04T17:56:34;6.30;;;3.05;;
45940;SDS011;31858;46.008;8.978;2022-09-04T18:06:42;4.55;;;3.28;;
45940;SDS011;31858;46.008;8.978;2022-09-04T18:16:55;6.30;;;3.53;;
45940;SDS011;31858;46.008;8.978;2022-09-04T18:27:03;5.57;;;4.07;;
45940;SDS011;31858;46.008;8.978;2022-09-04T18:37:15;3.45;;;3.15;;
45940;SDS011;31858;46.008;8.978;2022-09-04T18:47:23;4.32;;;3.60;;
45940;SDS011;31858;46.008;8.978;2022-09-04T18:57:40;7.57;;;4.13;;
45940;SDS011;31858;46.008;8.978;2022-09-04T19:07:49;4.45;;;3.92;;
45940;SDS011;31858;46.008;8.978;2022-09-04T19:17:55;4.57;;;3.35;;
45940;SDS011;31858;46.008;8.978;2022-09-04T19:28:05;6.45;;;3.83;;
45940;SDS011;31858;46.008;8.978;2022-09-04T19:38:15;7.93;;;4.38;;
45940;SDS011;31858;46.008;8.978;2022-09-04T19:48:24;3.92;;;3.60;;
45940;SDS011;31858;46.008;8.978;2022-09-04T19:58:40;5.75;;;3.70;;
45940;SDS011;31858;46.008;8.978;2022-09-04T20:08:52;5.05;;;3.83;;
45940;SDS011;31858;46.008;8.978;2022-09-04T20:19:00;7.30;;;4.00;;
45940;SDS011;31858;46.008;8.978;2022-09-04T20:29:10;6.40;;;3.80;;
45940;SDS011;31858;46.008;8.978;2022-09-04T20:39:20;5.80;;;3.70;;
45940;SDS011;31858;46.008;8.978;2022-09-04T20:49:28;5.72;;;3.40;;
45940;SDS011;31858;46.008;8.978;2022-09-04T20:59:35;4.55;;;4.15;;
45940;SDS011;31858;46.008;8.978;2022-09-04T21:09:50;6.43;;;3.88;;
45940;SDS011;31858;46.008;8.978;2022-09-04T21:20:06;7.95;;;4.13;;
45940;SDS011;31858;46.008;8.978;2022-09-04T21:30:32;4.50;;;3.70;;
45940;SDS011;31858;46.008;8.978;2022-09-04T21:40:49;6.22;;;4.47;;
45940;SDS011;31858;46.008;8.978;2022-09-04T21:51:16;4.63;;;4.22;;
45940;SDS011;31858;46.008;8.978;2022-09-04T22:01:38;4.55;;;4.15;;
45940;SDS011;31858;46.008;8.978;2022-09-04T22:11:55;5.90;;;4.20;;
45940;SDS011;31858;46.008;8.978;2022-09-04T22:22:09;6.25;;;4.40;;
45940;SDS011;31858;46.008;8.978;2022-09-04T22:43:27;6.57;;;4.50;;
45940;SDS011;31858;46.008;8.978;2022-09-04T22:53:50;4.32;;;4.03;;
45940;SDS011;31858;46.008;8.978;2022-09-04T23:04:14;4.78;;;4.10;;
45940;SDS011;31858;46.008;8.978;2022-09-04T23:14:51;4.53;;;4.13;;
45940;SDS011;31858;46.008;8.978;2022-09-04T23:25:09;6.68;;;4.45;;
45940;SDS011;31858;46.008;8.978;2022-09-04T23:35:23;9.03;;;4.77;;
45940;SDS011;31858;46.008;8.978;2022-09-04T23:56:17;4.60;;;4.20;;
